sensor_id;sensor_type;location;lat;lon;timestamp;pressure;altitude;pressure_sealevel;temperature;humidity
10064;BME280;5071;52.360;13.134;2022-08-14T00:04:58;101057.69;;;19.29;94.12
10064;BME280;5071;52.360;13.134;2022-08-14T00:10:00;101055.81;;;19.31;93.81
10064;BME280;5071;52.360;13.134;2022-08-14T00:15:29;101050.63;;;19.27;93.64
10064;BME280;5071;52.360;13.134;2022-08-14T00:20:46;101047.16;;;19.25;94.13
10064;BME280;5071;52.360;13.134;2022-08-14T00:25:52;101046.41;;;19.21;94.05
10064;BME280;5071;52.360;13.134;2022-08-14T00:31:08;101042.69;;;19.23;94.13
10064;BME280;5071;52.360;13.134;2022-08-14T00:36:10;101043.72;;;19.21;94.07
10064;BME280;5071;52.360;13.134;2022-08-14T00:41:33;101043.09;;;19.14;93.79
10064;BME280;5071;52.360;13.134;2022-08-14T00:46:36;101036.53;;;18.99;93.72
10064;BME280;5071;52.360;13.134;2022-08-14T00:51:39;101023.53;;;18.90;94.02
10064;BME280;5071;52.360;13.134;2022-08-14T00:56:41;101023.69;;;18.86;94.48
10064;BME280;5071;52.360;13.134;2022-08-14T01:01:45;101030.25;;;18.78;94.28
10064;BME280;5071;52.360;13.134;2022-08-14T01:06:50;101032.28;;;18.73;94.47
10064;BME280;5071;52.360;13.134;2022-08-14T01:11:56;101030.72;;;18.68;94.38
10064;BME280;5071;52.360;13.134;2022-08-14T01:17:05;101036.31;;;18.61;93.89
10064;BME280;5071;52.360;13.134;2022-08-14T01:22:11;101037.44;;;18.56;93.65
10064;BME280;5071;52.360;13.134;2022-08-14T01:27:14;101033.13;;;18.52;94.24
10064;BME280;5071;52.360;13.134;2022-08-14T01:32:17;101030.66;;;18.47;94.16
10064;BME280;5071;52.360;13.134;2022-08-14T01:37:25;101025.66;;;18.38;94.51
10064;BME280;5071;52.360;13.134;2022-08-14T01:42:27;101022.50;;;18.26;94.13
10064;BME280;5071;52.360;13.134;2022-08-14T01:47:32;101028.00;;;18.23;94.46
10064;BME280;5071;52.360;13.134;2022-08-14T01:52:39;101020.84;;;18.22;94.53
10064;BME280;5071;52.360;13.134;2022-08-14T01:58:01;101025.56;;;18.17;94.18
10064;BME280;5071;52.360;13.134;2022-08-14T02:03:23;101027.69;;;18.31;94.87
10064;BME280;5071;52.360;13.134;2022-08-14T02:08:32;101022.91;;;18.39;94.30
10064;BME280;5071;52.360;13.134;2022-08-14T02:13:37;101024.56;;;18.42;94.61
10064;BME280;5071;52.360;13.134;2022-08-14T02:18:44;101015.69;;;18.40;94.29
10064;BME280;5071;52.360;13.134;2022-08-14T02:23:49;101021.09;;;18.40;94.37
10064;BME280;5071;52.360;13.134;2022-08-14T02:28:56;101015.56;;;18.43;94.39
10064;BME280;5071;52.360;13.134;2022-08-14T02:34:04;101014.69;;;18.42;94.89
10064;BME280;5071;52.360;13.134;2022-08-14T02:39:29;101002.81;;;18.48;94.90
10064;BME280;5071;52.360;13.134;2022-08-14T02:44:32;101008.19;;;18.48;94.38
10064;BME280;5071;52.360;13.134;2022-08-14T02:49:40;100995.56;;;18.50;94.49
10064;BME280;5071;52.360;13.134;2022-08-14T02:54:44;100993.56;;;18.55;94.95
10064;BME280;5071;52.360;13.134;2022-08-14T02:59:47;100985.50;;;18.55;94.60
10064;BME280;5071;52.360;13.134;2022-08-14T03:04:51;100984.44;;;18.59;94.46
10064;BME280;5071;52.360;13.134;2022-08-14T03:09:55;100984.44;;;18.59;94.18
10064;BME280;5071;52.360;13.134;2022-08-14T03:15:17;100981.88;;;18.56;94.06
10064;BME280;5071;52.360;13.134;2022-08-14T03:20:21;100974.63;;;18.58;94.64
10064;BME280;5071;52.360;13.134;2022-08-14T03:25:25;100976.31;;;18.61;94.38
10064;BME280;5071;52.360;13.134;2022-08-14T03:30:28;100980.53;;;18.67;95.01
10064;BME280;5071;52.360;13.134;2022-08-14T03:35:41;100976.03;;;18.67;94.70
10064;BME280;5071;52.360;13.134;2022-08-14T03:41:05;100968.72;;;18.71;93.83
10064;BME280;5071;52.360;13.134;2022-08-14T03:46:08;100962.25;;;18.75;94.40
10064;BME280;5071;52.360;13.134;2022-08-14T03:51:30;100956.97;;;18.73;93.70
10064;BME280;5071;52.360;13.134;2022-08-14T03:56:34;100962.41;;;18.72;94.31
10064;BME280;5071;52.360;13.134;2022-08-14T04:01:38;100959.28;;;18.82;94.60
10064;BME280;5071;52.360;13.134;2022-08-14T04:06:46;100954.28;;;18.73;93.82
10064;BME280;5071;52.360;13.134;2022-08-14T04:11:51;100960.66;;;18.71;94.52
10064;BME280;5071;52.360;13.134;2022-08-14T04:16:53;100967.63;;;18.75;94.44
10064;BME280;5071;52.360;13.134;2022-08-14T04:21:55;100964.81;;;18.78;94.00
10064;BME280;5071;52.360;13.134;2022-08-14T04:27:06;100967.44;;;18.81;94.34
10064;BME280;5071;52.360;13.134;2022-08-14T04:32:11;100970.91;;;18.83;94.25
10064;BME280;5071;52.360;13.134;2022-08-14T04:37:33;100968.75;;;18.91;94.11
10064;BME280;5071;52.360;13.134;2022-08-14T04:42:36;100960.28;;;19.00;93.91
10064;BME280;5071;52.360;13.134;2022-08-14T04:47:49;100959.94;;;19.08;93.32
10064;BME280;5071;52.360;13.134;2022-08-14T04:52:54;100953.13;;;19.20;93.01
10064;BME280;5071;52.360;13.134;2022-08-14T04:57:58;100956.66;;;19.22;93.17
10064;BME280;5071;52.360;13.134;2022-08-14T05:02:59;100954.06;;;19.39;93.02
10064;BME280;5071;52.360;13.134;2022-08-14T05:08:04;100958.75;;;19.55;92.08
10064;BME280;5071;52.360;13.134;2022-08-14T05:13:11;100956.28;;;19.69;91.33
10064;BME280;5071;52.360;13.134;2022-08-14T05:18:34;100944.81;;;19.85;91.20
10064;BME280;5071;52.360;13.134;2022-08-14T05:23:56;100939.81;;;20.13;90.78
10064;BME280;5071;52.360;13.134;2022-08-14T05:29:01;100944.97;;;20.54;90.05
10064;BME280;5071;52.360;13.134;2022-08-14T05:34:03;100940.09;;;20.80;89.57
10064;BME280;5071;52.360;13.134;2022-08-14T05:39:05;100932.06;;;20.96;85.17
10064;BME280;5071;52.360;13.134;2022-08-14T05:44:10;100922.59;;;21.71;86.66
10064;BME280;5071;52.360;13.134;2022-08-14T05:49:12;100932.09;;;22.42;84.97
10064;BME280;5071;52.360;13.134;2022-08-14T05:54:14;100931.19;;;23.02;81.57
10064;BME280;5071;52.360;13.134;2022-08-14T05:59:29;100933.81;;;24.04;71.17
10064;BME280;5071;52.360;13.134;2022-08-14T06:04:40;100940.06;;;26.26;69.74
10064;BME280;5071;52.360;13.134;2022-08-14T06:09:42;100933.19;;;28.06;58.97
10064;BME280;5071;52.360;13.134;2022-08-14T06:14:54;100925.16;;;29.11;58.27
10064;BME280;5071;52.360;13.134;2022-08-14T06:19:57;100915.47;;;28.44;62.13
10064;BME280;5071;52.360;13.134;2022-08-14T06:24:58;100915.06;;;28.16;57.39
10064;BME280;5071;52.360;13.134;2022-08-14T06:30:04;100902.63;;;27.46;61.48
10064;BME280;5071;52.360;13.134;2022-08-14T06:35:12;100895.03;;;27.15;63.09
10064;BME280;5071;52.360;13.134;2022-08-14T06:40:17;100904.75;;;25.64;66.50
10064;BME280;5071;52.360;13.134;2022-08-14T06:45:30;100897.72;;;25.85;69.19
10064;BME280;5071;52.360;13.134;2022-08-14T06:50:33;100897.59;;;25.11;69.22
10064;BME280;5071;52.360;13.134;2022-08-14T06:55:35;100903.50;;;25.44;70.21
10064;BME280;5071;52.360;13.134;2022-08-14T07:00:43;100884.63;;;25.66;67.79
10064;BME280;5071;52.360;13.134;2022-08-14T07:05:46;100890.38;;;25.61;69.19
10064;BME280;5071;52.360;13.134;2022-08-14T07:10:59;100897.94;;;25.82;67.41
10064;BME280;5071;52.360;13.134;2022-08-14T07:16:05;100885.94;;;25.60;68.01
10064;BME280;5071;52.360;13.134;2022-08-14T07:21:07;100895.69;;;25.76;67.45
10064;BME280;5071;52.360;13.134;2022-08-14T07:26:09;100886.38;;;26.04;68.85
10064;BME280;5071;52.360;13.134;2022-08-14T07:31:15;100879.00;;;26.42;66.81
10064;BME280;5071;52.360;13.134;2022-08-14T07:36:18;100885.72;;;26.84;63.03
10064;BME280;5071;52.360;13.134;2022-08-14T07:41:31;100887.84;;;26.92;61.84
10064;BME280;5071;52.360;13.134;2022-08-14T07:46:38;100879.56;;;27.16;60.39
10064;BME280;5071;52.360;13.134;2022-08-14T07:51:40;100874.38;;;27.36;59.73
10064;BME280;5071;52.360;13.134;2022-08-14T07:56:43;100872.28;;;27.50;57.98
10064;BME280;5071;52.360;13.134;2022-08-14T08:01:52;100871.50;;;27.14;58.10
10064;BME280;5071;52.360;13.134;2022-08-14T08:07:00;100869.63;;;26.92;60.35
10064;BME280;5071;52.360;13.134;2022-08-14T08:12:06;100864.41;;;27.01;60.16
10064;BME280;5071;52.360;13.134;2022-08-14T08:17:16;100867.53;;;27.19;59.64
10064;BME280;5071;52.360;13.134;2022-08-14T08:22:19;100867.03;;;27.59;57.63
10064;BME280;5071;52.360;13.134;2022-08-14T08:27:21;100870.88;;;27.67;57.99
10064;BME280;5071;52.360;13.134;2022-08-14T08:32:27;100861.56;;;27.70;53.66
10064;BME280;5071;52.360;13.134;2022-08-14T08:37:34;100852.72;;;28.33;51.47
10064;BME280;5071;52.360;13.134;2022-08-14T08:42:41;100847.78;;;28.59;50.98
10064;BME280;5071;52.360;13.134;2022-08-14T08:47:47;100848.78;;;28.88;51.31
10064;BME280;5071;52.360;13.134;2022-08-14T08:52:53;100845.97;;;28.69;50.60
10064;BME280;5071;52.360;13.134;2022-08-14T08:57:57;100824.72;;;29.34;48.46
10064;BME280;5071;52.360;13.134;2022-08-14T09:03:04;100829.63;;;30.59;48.47
10064;BME280;5071;52.360;13.134;2022-08-14T09:08:14;100827.16;;;32.50;42.93
10064;BME280;5071;52.360;13.134;2022-08-14T09:13:34;100815.19;;;33.46;39.20
10064;BME280;5071;52.360;13.134;2022-08-14T09:18:39;100806.91;;;33.88;39.29
10064;BME280;5071;52.360;13.134;2022-08-14T09:23:42;100800.03;;;34.25;38.89
10064;BME280;5071;52.360;13.134;2022-08-14T09:29:05;100797.81;;;33.45;37.31
10064;BME280;5071;52.360;13.134;2022-08-14T09:34:15;100800.16;;;33.75;36.29
10064;BME280;5071;52.360;13.134;2022-08-14T09:39:40;100796.22;;;32.48;39.51
10064;BME280;5071;52.360;13.134;2022-08-14T09:44:48;100786.44;;;32.27;39.94
10064;BME280;5071;52.360;13.134;2022-08-14T09:49:56;100781.25;;;32.95;39.69
10064;BME280;5071;52.360;13.134;2022-08-14T09:55:00;100776.09;;;34.09;36.35
10064;BME280;5071;52.360;13.134;2022-08-14T10:00:09;100771.06;;;35.58;35.77
10064;BME280;5071;52.360;13.134;2022-08-14T10:05:34;100768.19;;;38.84;30.44
10064;BME280;5071;52.360;13.134;2022-08-14T10:10:40;100753.59;;;36.12;33.19
10064;BME280;5071;52.360;13.134;2022-08-14T10:15:44;100746.19;;;36.95;33.18
10064;BME280;5071;52.360;13.134;2022-08-14T10:20:59;100736.38;;;37.07;31.98
10064;BME280;5071;52.360;13.134;2022-08-14T10:26:04;100719.97;;;36.91;31.30
10064;BME280;5071;52.360;13.134;2022-08-14T10:31:19;100718.44;;;36.58;30.45
10064;BME280;5071;52.360;13.134;2022-08-14T10:36:28;100700.19;;;38.66;28.69
10064;BME280;5071;52.360;13.134;2022-08-14T10:41:40;100697.41;;;38.31;27.55
10064;BME280;5071;52.360;13.134;2022-08-14T10:46:51;100684.66;;;35.26;31.17
10064;BME280;5071;52.360;13.134;2022-08-14T10:52:22;100671.50;;;33.26;35.25
10064;BME280;5071;52.360;13.134;2022-08-14T10:57:26;100669.91;;;34.71;35.71
10064;BME280;5071;52.360;13.134;2022-08-14T11:02:32;100657.50;;;34.67;32.65
10064;BME280;5071;52.360;13.134;2022-08-14T11:07:57;100650.75;;;33.56;33.84
10064;BME280;5071;52.360;13.134;2022-08-14T11:13:00;100657.28;;;33.88;33.77
10064;BME280;5071;52.360;13.134;2022-08-14T11:18:05;100652.47;;;34.23;32.76
10064;BME280;5071;52.360;13.134;2022-08-14T11:23:14;100630.84;;;32.18;36.06
10064;BME280;5071;52.360;13.134;2022-08-14T11:28:19;100638.50;;;32.75;37.23
10064;BME280;5071;52.360;13.134;2022-08-14T11:33:47;100641.63;;;33.47;33.30
10064;BME280;5071;52.360;13.134;2022-08-14T11:38:51;100626.03;;;34.45;31.47
10064;BME280;5071;52.360;13.134;2022-08-14T11:43:54;100623.66;;;34.81;31.48
10064;BME280;5071;52.360;13.134;2022-08-14T11:48:59;100625.59;;;34.25;31.26
10064;BME280;5071;52.360;13.134;2022-08-14T11:54:07;100615.31;;;34.58;32.90
10064;BME280;5071;52.360;13.134;2022-08-14T11:59:15;100610.63;;;34.11;30.73
10064;BME280;5071;52.360;13.134;2022-08-14T12:04:18;100605.50;;;34.56;30.39
10064;BME280;5071;52.360;13.134;2022-08-14T12:09:37;100605.66;;;33.41;31.32
10064;BME280;5071;52.360;13.134;2022-08-14T12:14:48;100596.53;;;33.48;32.03
10064;BME280;5071;52.360;13.134;2022-08-14T12:19:52;100581.94;;;33.23;32.96
10064;BME280;5071;52.360;13.134;2022-08-14T12:24:58;100574.00;;;33.61;32.09
10064;BME280;5071;52.360;13.134;2022-08-14T12:30:03;100565.78;;;33.37;34.01
10064;BME280;5071;52.360;13.134;2022-08-14T12:35:06;100559.25;;;33.79;33.53
10064;BME280;5071;52.360;13.134;2022-08-14T12:40:14;100549.59;;;33.58;31.46
10064;BME280;5071;52.360;13.134;2022-08-14T12:45:29;100548.31;;;34.02;31.57
10064;BME280;5071;52.360;13.134;2022-08-14T12:50:37;100543.66;;;32.79;30.83
10064;BME280;5071;52.360;13.134;2022-08-14T12:55:42;100547.41;;;32.62;30.42
10064;BME280;5071;52.360;13.134;2022-08-14T13:01:05;100538.03;;;32.97;29.40
10064;BME280;5071;52.360;13.134;2022-08-14T13:06:18;100535.16;;;33.31;30.02
10064;BME280;5071;52.360;13.134;2022-08-14T13:11:23;100518.13;;;33.28;27.83
10064;BME280;5071;52.360;13.134;2022-08-14T13:16:29;100504.50;;;32.77;31.18
10064;BME280;5071;52.360;13.134;2022-08-14T13:21:40;100501.09;;;33.41;29.15
10064;BME280;5071;52.360;13.134;2022-08-14T13:27:04;100472.47;;;33.83;29.33
10064;BME280;5071;52.360;13.134;2022-08-14T13:32:10;100479.19;;;33.80;30.25
10064;BME280;5071;52.360;13.134;2022-08-14T13:37:13;100466.06;;;33.26;32.95
10064;BME280;5071;52.360;13.134;2022-08-14T13:42:17;100459.09;;;33.55;33.09
10064;BME280;5071;52.360;13.134;2022-08-14T13:47:20;100456.91;;;33.98;29.83
10064;BME280;5071;52.360;13.134;2022-08-14T13:52:23;100448.09;;;32.57;32.78
10064;BME280;5071;52.360;13.134;2022-08-14T13:57:47;100438.31;;;31.95;32.85
10064;BME280;5071;52.360;13.134;2022-08-14T14:03:06;100427.75;;;32.08;33.20
10064;BME280;5071;52.360;13.134;2022-08-14T14:08:09;100428.56;;;32.76;31.50
10064;BME280;5071;52.360;13.134;2022-08-14T14:13:22;100420.72;;;33.70;31.51
10064;BME280;5071;52.360;13.134;2022-08-14T14:18:25;100401.75;;;32.95;30.89
10064;BME280;5071;52.360;13.134;2022-08-14T14:23:35;100400.03;;;33.26;31.79
10064;BME280;5071;52.360;13.134;2022-08-14T14:28:42;100401.75;;;32.62;31.35
10064;BME280;5071;52.360;13.134;2022-08-14T14:33:44;100388.34;;;33.08;29.42
10064;BME280;5071;52.360;13.134;2022-08-14T14:38:53;100378.84;;;33.35;28.03
10064;BME280;5071;52.360;13.134;2022-08-14T14:43:57;100382.72;;;33.65;29.00
10064;BME280;5071;52.360;13.134;2022-08-14T14:49:12;100381.41;;;34.16;27.83
10064;BME280;5071;52.360;13.134;2022-08-14T14:54:16;100382.13;;;34.18;26.89
10064;BME280;5071;52.360;13.134;2022-08-14T14:59:21;100375.47;;;34.04;26.72
10064;BME280;5071;52.360;13.134;2022-08-14T15:04:24;100376.34;;;33.65;25.96
10064;BME280;5071;52.360;13.134;2022-08-14T15:09:27;100378.47;;;33.94;26.74
10064;BME280;5071;52.360;13.134;2022-08-14T15:14:30;100375.78;;;33.78;26.37
10064;BME280;5071;52.360;13.134;2022-08-14T15:19:53;100374.25;;;32.95;27.67
10064;BME280;5071;52.360;13.134;2022-08-14T15:24:57;100367.03;;;32.77;27.69
10064;BME280;5071;52.360;13.134;2022-08-14T15:30:04;100353.66;;;32.49;27.02
10064;BME280;5071;52.360;13.134;2022-08-14T15:35:08;100354.56;;;33.47;25.47
10064;BME280;5071;52.360;13.134;2022-08-14T15:40:12;100346.50;;;33.77;24.21
10064;BME280;5071;52.360;13.134;2022-08-14T15:45:24;100337.91;;;34.34;24.85
10064;BME280;5071;52.360;13.134;2022-08-14T15:50:27;100345.91;;;33.58;24.22
10064;BME280;5071;52.360;13.134;2022-08-14T15:55:29;100336.22;;;33.70;23.77
10064;BME280;5071;52.360;13.134;2022-08-14T16:00:35;100329.47;;;33.42;25.51
10064;BME280;5071;52.360;13.134;2022-08-14T16:05:45;100326.72;;;33.42;25.17
10064;BME280;5071;52.360;13.134;2022-08-14T16:10:47;100318.91;;;33.54;24.75
10064;BME280;5071;52.360;13.134;2022-08-14T16:15:50;100317.22;;;33.53;24.00
10064;BME280;5071;52.360;13.134;2022-08-14T16:20:55;100312.28;;;33.40;23.94
10064;BME280;5071;52.360;13.134;2022-08-14T16:25:58;100299.19;;;33.42;24.11
10064;BME280;5071;52.360;13.134;2022-08-14T16:31:02;100294.97;;;33.23;25.13
10064;BME280;5071;52.360;13.134;2022-08-14T16:36:05;100294.47;;;33.19;24.42
10064;BME280;5071;52.360;13.134;2022-08-14T16:41:28;100279.53;;;33.14;24.31
10064;BME280;5071;52.360;13.134;2022-08-14T16:46:33;100279.34;;;33.07;25.37
10064;BME280;5071;52.360;13.134;2022-08-14T16:51:38;100285.88;;;33.14;24.73
10064;BME280;5071;52.360;13.134;2022-08-14T16:56:41;100276.59;;;33.07;25.69
10064;BME280;5071;52.360;13.134;2022-08-14T17:01:54;100276.00;;;32.64;26.66
10064;BME280;5071;52.360;13.134;2022-08-14T17:06:59;100266.41;;;32.51;26.85
10064;BME280;5071;52.360;13.134;2022-08-14T17:12:05;100259.88;;;32.44;29.48
10064;BME280;5071;52.360;13.134;2022-08-14T17:17:10;100254.03;;;32.23;28.12
10064;BME280;5071;52.360;13.134;2022-08-14T17:22:12;100243.06;;;32.14;27.68
10064;BME280;5071;52.360;13.134;2022-08-14T17:27:20;100241.66;;;31.86;28.99
10064;BME280;5071;52.360;13.134;2022-08-14T17:32:24;100239.13;;;31.42;28.51
10064;BME280;5071;52.360;13.134;2022-08-14T17:37:50;100230.72;;;31.00;30.27
10064;BME280;5071;52.360;13.134;2022-08-14T17:42:57;100237.63;;;30.78;30.56
10064;BME280;5071;52.360;13.134;2022-08-14T17:48:30;100234.25;;;30.58;31.66
10064;BME280;5071;52.360;13.134;2022-08-14T17:53:53;100240.94;;;30.20;32.54
10064;BME280;5071;52.360;13.134;2022-08-14T17:59:04;100245.31;;;29.87;31.39
10064;BME280;5071;52.360;13.134;2022-08-14T18:04:07;100250.69;;;29.51;33.33
10064;BME280;5071;52.360;13.134;2022-08-14T18:09:29;100258.06;;;29.13;33.18
10064;BME280;5071;52.360;13.134;2022-08-14T18:14:32;100259.47;;;28.89;35.35
10064;BME280;5071;52.360;13.134;2022-08-14T18:19:56;100246.34;;;28.55;34.56
10064;BME280;5071;52.360;13.134;2022-08-14T18:24:59;100258.72;;;28.20;35.99
10064;BME280;5071;52.360;13.134;2022-08-14T18:30:05;100258.69;;;27.81;37.77
10064;BME280;5071;52.360;13.134;2022-08-14T18:35:42;100263.81;;;27.45;39.29
10064;BME280;5071;52.360;13.134;2022-08-14T18:41:25;100278.91;;;27.19;39.92
10064;BME280;5071;52.360;13.134;2022-08-14T18:52:17;100298.66;;;27.11;45.14
10064;BME280;5071;52.360;13.134;2022-08-14T18:57:19;100299.44;;;26.92;46.63
10064;BME280;5071;52.360;13.134;2022-08-14T19:02:52;100309.00;;;26.65;47.87
10064;BME280;5071;52.360;13.134;2022-08-14T19:13:36;100303.72;;;26.31;49.33
10064;BME280;5071;52.360;13.134;2022-08-14T19:18:53;100294.28;;;26.14;49.62
10064;BME280;5071;52.360;13.134;2022-08-14T19:24:45;100301.41;;;26.06;49.96
10064;BME280;5071;52.360;13.134;2022-08-14T19:30:21;100302.41;;;25.93;50.85
10064;BME280;5071;52.360;13.134;2022-08-14T19:36:09;100298.84;;;25.82;51.31
10064;BME280;5071;52.360;13.134;2022-08-14T19:41:56;100290.38;;;25.52;52.53
10064;BME280;5071;52.360;13.134;2022-08-14T19:47:00;100293.22;;;25.39;52.02
10064;BME280;5071;52.360;13.134;2022-08-14T19:52:31;100296.22;;;25.25;52.51
10064;BME280;5071;52.360;13.134;2022-08-14T19:57:40;100290.66;;;25.15;53.10
10064;BME280;5071;52.360;13.134;2022-08-14T20:02:59;100279.53;;;24.96;54.14
10064;BME280;5071;52.360;13.134;2022-08-14T20:08:14;100296.56;;;24.87;54.08
10064;BME280;5071;52.360;13.134;2022-08-14T20:13:36;100290.66;;;24.93;54.12
10064;BME280;5071;52.360;13.134;2022-08-14T20:18:43;100280.25;;;24.98;53.33
10064;BME280;5071;52.360;13.134;2022-08-14T20:24:13;100278.66;;;24.95;53.95
10064;BME280;5071;52.360;13.134;2022-08-14T20:29:32;100278.56;;;24.86;54.95
10064;BME280;5071;52.360;13.134;2022-08-14T20:34:41;100281.00;;;24.77;55.24
10064;BME280;5071;52.360;13.134;2022-08-14T20:39:52;100273.09;;;24.63;56.08
10064;BME280;5071;52.360;13.134;2022-08-14T20:45:02;100280.72;;;24.58;56.00
10064;BME280;5071;52.360;13.134;2022-08-14T20:50:19;100277.91;;;24.59;55.76
10064;BME280;5071;52.360;13.134;2022-08-14T20:55:34;100277.72;;;24.50;56.68
10064;BME280;5071;52.360;13.134;2022-08-14T21:00:38;100276.84;;;24.49;56.51
10064;BME280;5071;52.360;13.134;2022-08-14T21:05:56;100275.53;;;24.55;56.34
10064;BME280;5071;52.360;13.134;2022-08-14T21:10:59;100262.69;;;24.57;56.33
10064;BME280;5071;52.360;13.134;2022-08-14T21:16:05;100256.69;;;24.53;57.26
10064;BME280;5071;52.360;13.134;2022-08-14T21:21:28;100251.94;;;24.44;56.97
10064;BME280;5071;52.360;13.134;2022-08-14T21:26:43;100257.72;;;24.39;57.12
10064;BME280;5071;52.360;13.134;2022-08-14T21:32:03;100252.53;;;24.36;57.52
10064;BME280;5071;52.360;13.134;2022-08-14T21:37:23;100252.63;;;24.23;58.48
10064;BME280;5071;52.360;13.134;2022-08-14T21:42:30;100252.13;;;24.18;58.46
10064;BME280;5071;52.360;13.134;2022-08-14T21:47:36;100257.88;;;24.14;58.73
10064;BME280;5071;52.360;13.134;2022-08-14T21:52:45;100252.09;;;24.07;59.23
10064;BME280;5071;52.360;13.134;2022-08-14T21:58:01;100242.09;;;24.08;59.08
10064;BME280;5071;52.360;13.134;2022-08-14T22:03:24;100247.72;;;23.93;61.19
10064;BME280;5071;52.360;13.134;2022-08-14T22:08:37;100244.06;;;23.57;61.38
10064;BME280;5071;52.360;13.134;2022-08-14T22:13:46;100248.84;;;23.29;62.79
10064;BME280;5071;52.360;13.134;2022-08-14T22:18:49;100248.97;;;23.02;63.44
10064;BME280;5071;52.360;13.134;2022-08-14T22:23:53;100255.78;;;22.82;64.29
10064;BME280;5071;52.360;13.134;2022-08-14T22:28:56;100251.91;;;22.61;65.47
10064;BME280;5071;52.360;13.134;2022-08-14T22:33:59;100245.84;;;22.57;64.92
10064;BME280;5071;52.360;13.134;2022-08-14T22:39:03;100241.53;;;22.55;64.70
10064;BME280;5071;52.360;13.134;2022-08-14T22:44:14;100226.16;;;22.42;66.36
10064;BME280;5071;52.360;13.134;2022-08-14T22:49:18;100231.16;;;22.36;65.95
10064;BME280;5071;52.360;13.134;2022-08-14T22:54:42;100220.97;;;22.26;66.29
10064;BME280;5071;52.360;13.134;2022-08-14T22:59:54;100223.81;;;22.10;66.91
10064;BME280;5071;52.360;13.134;2022-08-14T23:04:59;100231.03;;;21.97;67.60
10064;BME280;5071;52.360;13.134;2022-08-14T23:10:04;100219.34;;;21.84;67.93
10064;BME280;5071;52.360;13.134;2022-08-14T23:15:27;100219.63;;;21.66;68.39
10064;BME280;5071;52.360;13.134;2022-08-14T23:20:31;100222.94;;;21.57;69.13
10064;BME280;5071;52.360;13.134;2022-08-14T23:25:39;100222.56;;;21.49;68.83
10064;BME280;5071;52.360;13.134;2022-08-14T23:31:02;100215.69;;;21.43;69.25
10064;BME280;5071;52.360;13.134;2022-08-14T23:36:08;100224.31;;;21.35;69.50
10064;BME280;5071;52.360;13.134;2022-08-14T23:41:32;100231.88;;;21.30;70.66
10064;BME280;5071;52.360;13.134;2022-08-14T23:46:52;100223.38;;;21.22;70.09
10064;BME280;5071;52.360;13.134;2022-08-14T23:52:01;100226.59;;;21.14;70.16
10064;BME280;5071;52.360;13.134;2022-08-14T23:57:25;100218.91;;;20.94;71.02
